sensor_id;sensor_type;location;lat;lon;timestamp;P1;durP1;ratioP1;P2;durP2;ratioP2
74939;SDS011;63505;45.226;37.908;2023-08-08T00:01:32;16.83;;;12.00;;
74939;SDS011;63505;45.226;37.908;2023-08-08T00:03:57;18.58;;;11.23;;
74939;SDS011;63505;45.226;37.908;2023-08-08T00:06:23;18.05;;;11.38;;
74939;SDS011;63505;45.226;37.908;2023-08-08T00:08:49;14.98;;;10.82;;
74939;SDS011;63505;45.226;37.908;2023-08-08T00:11:15;17.67;;;10.70;;
74939;SDS011;63505;45.226;37.908;2023-08-08T00:13:41;18.55;;;10.98;;
74939;SDS011;63505;45.226;37.908;2023-08-08T00:16:07;17.48;;;11.98;;
74939;SDS011;63505;45.226;37.908;2023-08-08T00:18:33;17.33;;;11.32;;
74939;SDS011;63505;45.226;37.908;2023-08-08T00:20:59;15.90;;;10.90;;
74939;SDS011;63505;45.226;37.908;2023-08-08T00:23:25;15.00;;;10.38;;
74939;SDS011;63505;45.226;37.908;2023-08-08T00:25:51;16.90;;;12.13;;
74939;SDS011;63505;45.226;37.908;2023-08-08T00:28:17;14.60;;;11.07;;
74939;SDS011;63505;45.226;37.908;2023-08-08T00:30:44;15.13;;;10.60;;
74939;SDS011;63505;45.226;37.908;2023-08-08T00:33:10;15.65;;;10.95;;
74939;SDS011;63505;45.226;37.908;2023-08-08T00:35:36;18.00;;;11.73;;
74939;SDS011;63505;45.226;37.908;2023-08-08T00:38:02;17.50;;;10.73;;
74939;SDS011;63505;45.226;37.908;2023-08-08T00:40:28;18.85;;;10.93;;
74939;SDS011;63505;45.226;37.908;2023-08-08T00:42:54;20.23;;;12.35;;
74939;SDS011;63505;45.226;37.908;2023-08-08T00:45:20;16.05;;;11.23;;
74939;SDS011;63505;45.226;37.908;2023-08-08T00:47:47;19.90;;;11.50;;
74939;SDS011;63505;45.226;37.908;2023-08-08T00:50:13;14.07;;;10.48;;
74939;SDS011;63505;45.226;37.908;2023-08-08T00:52:39;19.88;;;12.23;;
74939;SDS011;63505;45.226;37.908;2023-08-08T00:55:07;19.42;;;10.68;;
74939;SDS011;63505;45.226;37.908;2023-08-08T00:57:34;15.88;;;11.23;;
74939;SDS011;63505;45.226;37.908;2023-08-08T01:00:01;18.23;;;11.95;;
74939;SDS011;63505;45.226;37.908;2023-08-08T01:02:28;17.30;;;12.80;;
74939;SDS011;63505;45.226;37.908;2023-08-08T01:04:54;18.88;;;12.20;;
74939;SDS011;63505;45.226;37.908;2023-08-08T01:10:08;21.27;;;12.68;;
74939;SDS011;63505;45.226;37.908;2023-08-08T01:12:46;17.63;;;10.48;;
74939;SDS011;63505;45.226;37.908;2023-08-08T01:15:16;14.80;;;10.90;;
74939;SDS011;63505;45.226;37.908;2023-08-08T01:17:43;18.20;;;11.05;;
74939;SDS011;63505;45.226;37.908;2023-08-08T01:20:11;19.58;;;11.18;;
74939;SDS011;63505;45.226;37.908;2023-08-08T01:22:48;17.48;;;10.43;;
74939;SDS011;63505;45.226;37.908;2023-08-08T01:25:38;16.90;;;11.25;;
74939;SDS011;63505;45.226;37.908;2023-08-08T01:28:05;21.73;;;10.02;;
74939;SDS011;63505;45.226;37.908;2023-08-08T01:30:32;18.52;;;11.68;;
74939;SDS011;63505;45.226;37.908;2023-08-08T01:33:00;17.75;;;11.18;;
74939;SDS011;63505;45.226;37.908;2023-08-08T01:35:28;18.27;;;10.98;;
74939;SDS011;63505;45.226;37.908;2023-08-08T01:38:01;17.17;;;10.25;;
74939;SDS011;63505;45.226;37.908;2023-08-08T01:40:34;18.90;;;11.10;;
74939;SDS011;63505;45.226;37.908;2023-08-08T01:43:02;19.27;;;10.45;;
74939;SDS011;63505;45.226;37.908;2023-08-08T01:45:30;14.73;;;10.38;;
74939;SDS011;63505;45.226;37.908;2023-08-08T01:47:56;18.63;;;10.77;;
74939;SDS011;63505;45.226;37.908;2023-08-08T01:50:22;17.33;;;10.98;;
74939;SDS011;63505;45.226;37.908;2023-08-08T01:52:48;24.35;;;11.45;;
74939;SDS011;63505;45.226;37.908;2023-08-08T01:55:13;20.33;;;11.18;;
74939;SDS011;63505;45.226;37.908;2023-08-08T01:57:39;15.52;;;10.88;;
74939;SDS011;63505;45.226;37.908;2023-08-08T02:00:06;17.55;;;10.60;;
74939;SDS011;63505;45.226;37.908;2023-08-08T02:02:40;20.63;;;11.52;;
74939;SDS011;63505;45.226;37.908;2023-08-08T02:05:06;16.33;;;11.05;;
74939;SDS011;63505;45.226;37.908;2023-08-08T02:07:32;17.52;;;10.68;;
74939;SDS011;63505;45.226;37.908;2023-08-08T02:09:59;17.35;;;10.73;;
74939;SDS011;63505;45.226;37.908;2023-08-08T02:12:25;16.80;;;10.85;;
74939;SDS011;63505;45.226;37.908;2023-08-08T02:14:51;14.60;;;10.27;;
74939;SDS011;63505;45.226;37.908;2023-08-08T02:17:17;18.88;;;9.85;;
74939;SDS011;63505;45.226;37.908;2023-08-08T02:19:43;15.52;;;9.88;;
74939;SDS011;63505;45.226;37.908;2023-08-08T02:22:09;15.85;;;10.05;;
74939;SDS011;63505;45.226;37.908;2023-08-08T02:24:35;15.88;;;10.65;;
74939;SDS011;63505;45.226;37.908;2023-08-08T02:27:00;17.52;;;10.68;;
74939;SDS011;63505;45.226;37.908;2023-08-08T02:29:26;20.08;;;10.45;;
74939;SDS011;63505;45.226;37.908;2023-08-08T02:31:52;17.70;;;10.80;;
74939;SDS011;63505;45.226;37.908;2023-08-08T02:34:18;15.73;;;9.85;;
74939;SDS011;63505;45.226;37.908;2023-08-08T02:36:43;15.50;;;10.95;;
74939;SDS011;63505;45.226;37.908;2023-08-08T02:39:09;16.85;;;9.98;;
74939;SDS011;63505;45.226;37.908;2023-08-08T02:41:35;15.90;;;9.13;;
74939;SDS011;63505;45.226;37.908;2023-08-08T02:44:01;17.35;;;9.82;;
74939;SDS011;63505;45.226;37.908;2023-08-08T02:46:27;12.85;;;9.13;;
74939;SDS011;63505;45.226;37.908;2023-08-08T02:48:53;14.30;;;10.10;;
74939;SDS011;63505;45.226;37.908;2023-08-08T02:51:19;18.33;;;11.18;;
74939;SDS011;63505;45.226;37.908;2023-08-08T02:53:45;19.00;;;10.23;;
74939;SDS011;63505;45.226;37.908;2023-08-08T02:56:11;18.15;;;11.45;;
74939;SDS011;63505;45.226;37.908;2023-08-08T02:58:40;24.90;;;11.05;;
74939;SDS011;63505;45.226;37.908;2023-08-08T03:01:06;22.75;;;10.73;;
74939;SDS011;63505;45.226;37.908;2023-08-08T03:03:33;18.40;;;10.02;;
74939;SDS011;63505;45.226;37.908;2023-08-08T03:06:00;17.25;;;10.60;;
74939;SDS011;63505;45.226;37.908;2023-08-08T03:08:27;16.58;;;9.80;;
74939;SDS011;63505;45.226;37.908;2023-08-08T03:10:54;17.50;;;10.38;;
74939;SDS011;63505;45.226;37.908;2023-08-08T03:13:20;18.05;;;11.43;;
74939;SDS011;63505;45.226;37.908;2023-08-08T03:15:48;17.20;;;10.52;;
74939;SDS011;63505;45.226;37.908;2023-08-08T03:18:15;23.33;;;11.02;;
74939;SDS011;63505;45.226;37.908;2023-08-08T03:20:41;22.23;;;11.13;;
74939;SDS011;63505;45.226;37.908;2023-08-08T03:23:08;16.27;;;10.25;;
74939;SDS011;63505;45.226;37.908;2023-08-08T03:25:35;21.83;;;12.10;;
74939;SDS011;63505;45.226;37.908;2023-08-08T03:28:01;18.55;;;10.25;;
74939;SDS011;63505;45.226;37.908;2023-08-08T03:30:27;18.48;;;12.20;;
74939;SDS011;63505;45.226;37.908;2023-08-08T03:32:54;17.25;;;10.30;;
74939;SDS011;63505;45.226;37.908;2023-08-08T03:35:20;16.38;;;10.23;;
74939;SDS011;63505;45.226;37.908;2023-08-08T03:37:46;17.58;;;9.80;;
74939;SDS011;63505;45.226;37.908;2023-08-08T03:40:12;16.52;;;10.43;;
74939;SDS011;63505;45.226;37.908;2023-08-08T03:42:40;18.05;;;10.32;;
74939;SDS011;63505;45.226;37.908;2023-08-08T03:45:07;14.35;;;9.50;;
74939;SDS011;63505;45.226;37.908;2023-08-08T03:47:33;15.70;;;10.00;;
74939;SDS011;63505;45.226;37.908;2023-08-08T03:50:00;18.35;;;11.27;;
74939;SDS011;63505;45.226;37.908;2023-08-08T03:52:26;18.23;;;11.40;;
74939;SDS011;63505;45.226;37.908;2023-08-08T03:54:52;16.35;;;10.23;;
74939;SDS011;63505;45.226;37.908;2023-08-08T03:57:18;18.65;;;11.68;;
74939;SDS011;63505;45.226;37.908;2023-08-08T03:59:44;18.35;;;10.27;;
74939;SDS011;63505;45.226;37.908;2023-08-08T04:02:10;13.82;;;10.02;;
74939;SDS011;63505;45.226;37.908;2023-08-08T04:04:36;17.10;;;11.50;;
74939;SDS011;63505;45.226;37.908;2023-08-08T04:07:04;16.08;;;9.23;;
74939;SDS011;63505;45.226;37.908;2023-08-08T04:09:29;18.50;;;10.35;;
74939;SDS011;63505;45.226;37.908;2023-08-08T04:11:56;15.82;;;9.18;;
74939;SDS011;63505;45.226;37.908;2023-08-08T04:14:22;15.20;;;9.77;;
74939;SDS011;63505;45.226;37.908;2023-08-08T04:16:48;42.63;;;30.40;;
74939;SDS011;63505;45.226;37.908;2023-08-08T04:19:14;90.63;;;63.60;;
74939;SDS011;63505;45.226;37.908;2023-08-08T04:21:40;43.47;;;32.58;;
74939;SDS011;63505;45.226;37.908;2023-08-08T04:24:06;26.55;;;16.58;;
74939;SDS011;63505;45.226;37.908;2023-08-08T04:26:33;19.65;;;12.88;;
74939;SDS011;63505;45.226;37.908;2023-08-08T04:28:59;15.23;;;10.02;;
74939;SDS011;63505;45.226;37.908;2023-08-08T04:31:25;17.83;;;11.45;;
74939;SDS011;63505;45.226;37.908;2023-08-08T04:33:51;14.73;;;10.02;;
74939;SDS011;63505;45.226;37.908;2023-08-08T04:36:23;13.60;;;9.50;;
74939;SDS011;63505;45.226;37.908;2023-08-08T04:38:49;10.20;;;6.85;;
74939;SDS011;63505;45.226;37.908;2023-08-08T04:41:15;11.05;;;6.47;;
74939;SDS011;63505;45.226;37.908;2023-08-08T04:43:40;13.65;;;6.32;;
74939;SDS011;63505;45.226;37.908;2023-08-08T04:46:06;12.73;;;6.78;;
74939;SDS011;63505;45.226;37.908;2023-08-08T04:48:32;11.32;;;6.20;;
74939;SDS011;63505;45.226;37.908;2023-08-08T04:50:58;8.57;;;5.60;;
74939;SDS011;63505;45.226;37.908;2023-08-08T04:53:24;9.95;;;6.10;;
74939;SDS011;63505;45.226;37.908;2023-08-08T04:55:49;9.75;;;5.80;;
74939;SDS011;63505;45.226;37.908;2023-08-08T04:58:15;6.75;;;4.55;;
74939;SDS011;63505;45.226;37.908;2023-08-08T05:00:41;6.85;;;4.93;;
74939;SDS011;63505;45.226;37.908;2023-08-08T05:03:07;15.00;;;4.57;;
74939;SDS011;63505;45.226;37.908;2023-08-08T05:05:33;7.75;;;4.70;;
74939;SDS011;63505;45.226;37.908;2023-08-08T05:07:59;8.25;;;5.07;;
74939;SDS011;63505;45.226;37.908;2023-08-08T05:10:25;9.95;;;4.50;;
74939;SDS011;63505;45.226;37.908;2023-08-08T05:12:50;10.10;;;5.10;;
74939;SDS011;63505;45.226;37.908;2023-08-08T05:15:16;9.98;;;4.97;;
74939;SDS011;63505;45.226;37.908;2023-08-08T05:17:42;8.57;;;4.53;;
74939;SDS011;63505;45.226;37.908;2023-08-08T05:20:09;8.52;;;4.88;;
74939;SDS011;63505;45.226;37.908;2023-08-08T05:22:35;11.18;;;5.07;;
74939;SDS011;63505;45.226;37.908;2023-08-08T05:25:01;7.45;;;4.72;;
74939;SDS011;63505;45.226;37.908;2023-08-08T05:27:27;9.73;;;4.53;;
74939;SDS011;63505;45.226;37.908;2023-08-08T05:29:52;8.93;;;5.07;;
74939;SDS011;63505;45.226;37.908;2023-08-08T05:32:18;9.05;;;4.80;;
74939;SDS011;63505;45.226;37.908;2023-08-08T05:34:44;7.32;;;4.63;;
74939;SDS011;63505;45.226;37.908;2023-08-08T05:37:10;9.35;;;5.47;;
74939;SDS011;63505;45.226;37.908;2023-08-08T05:39:36;6.90;;;4.38;;
74939;SDS011;63505;45.226;37.908;2023-08-08T05:42:02;9.90;;;5.10;;
74939;SDS011;63505;45.226;37.908;2023-08-08T05:44:28;7.57;;;4.82;;
74939;SDS011;63505;45.226;37.908;2023-08-08T05:46:53;6.28;;;4.63;;
74939;SDS011;63505;45.226;37.908;2023-08-08T05:49:19;7.18;;;5.10;;
74939;SDS011;63505;45.226;37.908;2023-08-08T05:51:45;8.25;;;4.63;;
74939;SDS011;63505;45.226;37.908;2023-08-08T05:54:11;6.93;;;4.82;;
74939;SDS011;63505;45.226;37.908;2023-08-08T05:56:37;7.95;;;5.10;;
74939;SDS011;63505;45.226;37.908;2023-08-08T05:59:03;9.50;;;4.60;;
74939;SDS011;63505;45.226;37.908;2023-08-08T06:01:30;8.45;;;4.60;;
74939;SDS011;63505;45.226;37.908;2023-08-08T06:03:56;10.95;;;5.10;;
74939;SDS011;63505;45.226;37.908;2023-08-08T06:06:24;15.57;;;5.28;;
74939;SDS011;63505;45.226;37.908;2023-08-08T06:08:51;11.02;;;4.50;;
74939;SDS011;63505;45.226;37.908;2023-08-08T06:11:17;11.82;;;6.28;;
74939;SDS011;63505;45.226;37.908;2023-08-08T06:13:43;12.07;;;5.88;;
74939;SDS011;63505;45.226;37.908;2023-08-08T06:16:09;9.68;;;5.13;;
74939;SDS011;63505;45.226;37.908;2023-08-08T06:18:35;11.45;;;6.85;;
74939;SDS011;63505;45.226;37.908;2023-08-08T06:21:01;13.05;;;5.65;;
74939;SDS011;63505;45.226;37.908;2023-08-08T06:23:27;7.13;;;5.28;;
74939;SDS011;63505;45.226;37.908;2023-08-08T06:25:53;13.20;;;4.93;;
74939;SDS011;63505;45.226;37.908;2023-08-08T06:28:19;8.85;;;4.55;;
74939;SDS011;63505;45.226;37.908;2023-08-08T06:30:45;13.50;;;5.18;;
74939;SDS011;63505;45.226;37.908;2023-08-08T06:33:11;9.50;;;5.63;;
74939;SDS011;63505;45.226;37.908;2023-08-08T06:35:37;11.20;;;4.35;;
74939;SDS011;63505;45.226;37.908;2023-08-08T06:38:04;11.90;;;4.18;;
74939;SDS011;63505;45.226;37.908;2023-08-08T06:40:30;10.00;;;3.75;;
74939;SDS011;63505;45.226;37.908;2023-08-08T06:42:56;8.38;;;4.72;;
74939;SDS011;63505;45.226;37.908;2023-08-08T06:45:22;11.55;;;4.00;;
74939;SDS011;63505;45.226;37.908;2023-08-08T06:47:48;10.93;;;4.25;;
74939;SDS011;63505;45.226;37.908;2023-08-08T06:50:14;10.43;;;4.45;;
74939;SDS011;63505;45.226;37.908;2023-08-08T06:52:41;8.63;;;4.70;;
74939;SDS011;63505;45.226;37.908;2023-08-08T06:55:08;9.35;;;5.15;;
74939;SDS011;63505;45.226;37.908;2023-08-08T06:57:36;7.28;;;4.30;;
74939;SDS011;63505;45.226;37.908;2023-08-08T07:00:03;8.00;;;4.22;;
74939;SDS011;63505;45.226;37.908;2023-08-08T07:02:31;9.65;;;4.30;;
74939;SDS011;63505;45.226;37.908;2023-08-08T07:04:57;8.50;;;4.47;;
74939;SDS011;63505;45.226;37.908;2023-08-08T07:07:24;10.35;;;4.10;;
74939;SDS011;63505;45.226;37.908;2023-08-08T07:09:51;6.47;;;3.58;;
74939;SDS011;63505;45.226;37.908;2023-08-08T07:12:17;10.85;;;4.03;;
74939;SDS011;63505;45.226;37.908;2023-08-08T07:14:43;10.07;;;3.28;;
74939;SDS011;63505;45.226;37.908;2023-08-08T07:17:12;9.45;;;3.35;;
74939;SDS011;63505;45.226;37.908;2023-08-08T07:19:38;7.50;;;3.30;;
74939;SDS011;63505;45.226;37.908;2023-08-08T07:22:05;11.43;;;3.42;;
74939;SDS011;63505;45.226;37.908;2023-08-08T07:24:31;10.57;;;3.55;;
74939;SDS011;63505;45.226;37.908;2023-08-08T07:26:57;9.80;;;3.75;;
74939;SDS011;63505;45.226;37.908;2023-08-08T07:29:24;10.63;;;3.45;;
74939;SDS011;63505;45.226;37.908;2023-08-08T07:31:52;12.13;;;3.95;;
74939;SDS011;63505;45.226;37.908;2023-08-08T07:34:18;8.35;;;3.67;;
74939;SDS011;63505;45.226;37.908;2023-08-08T07:36:45;11.13;;;4.18;;
74939;SDS011;63505;45.226;37.908;2023-08-08T07:39:11;10.40;;;3.78;;
74939;SDS011;63505;45.226;37.908;2023-08-08T07:41:37;9.73;;;4.13;;
74939;SDS011;63505;45.226;37.908;2023-08-08T07:44:04;9.82;;;4.13;;
74939;SDS011;63505;45.226;37.908;2023-08-08T07:46:30;7.20;;;4.45;;
74939;SDS011;63505;45.226;37.908;2023-08-08T07:48:57;8.45;;;3.60;;
74939;SDS011;63505;45.226;37.908;2023-08-08T07:51:29;13.98;;;3.63;;
74939;SDS011;63505;45.226;37.908;2023-08-08T07:53:55;8.75;;;4.00;;
74939;SDS011;63505;45.226;37.908;2023-08-08T07:56:21;5.85;;;3.25;;
74939;SDS011;63505;45.226;37.908;2023-08-08T07:58:46;6.78;;;3.78;;
74939;SDS011;63505;45.226;37.908;2023-08-08T08:01:12;8.50;;;3.40;;
74939;SDS011;63505;45.226;37.908;2023-08-08T08:03:39;4.22;;;2.30;;
74939;SDS011;63505;45.226;37.908;2023-08-08T08:06:05;11.70;;;3.97;;
74939;SDS011;63505;45.226;37.908;2023-08-08T08:08:32;9.88;;;4.47;;
74939;SDS011;63505;45.226;37.908;2023-08-08T08:10:58;8.73;;;4.22;;
74939;SDS011;63505;45.226;37.908;2023-08-08T08:13:24;10.07;;;4.40;;
74939;SDS011;63505;45.226;37.908;2023-08-08T08:15:50;13.65;;;7.05;;
74939;SDS011;63505;45.226;37.908;2023-08-08T08:18:16;8.32;;;4.25;;
74939;SDS011;63505;45.226;37.908;2023-08-08T08:20:43;9.38;;;3.97;;
74939;SDS011;63505;45.226;37.908;2023-08-08T08:23:09;8.95;;;4.40;;
74939;SDS011;63505;45.226;37.908;2023-08-08T08:25:35;12.68;;;5.07;;
74939;SDS011;63505;45.226;37.908;2023-08-08T08:28:01;10.48;;;3.95;;
74939;SDS011;63505;45.226;37.908;2023-08-08T08:30:27;9.50;;;4.18;;
74939;SDS011;63505;45.226;37.908;2023-08-08T08:32:53;8.55;;;3.75;;
74939;SDS011;63505;45.226;37.908;2023-08-08T08:35:19;9.00;;;4.28;;
74939;SDS011;63505;45.226;37.908;2023-08-08T08:37:45;11.02;;;4.72;;
74939;SDS011;63505;45.226;37.908;2023-08-08T08:40:12;12.40;;;4.45;;
74939;SDS011;63505;45.226;37.908;2023-08-08T08:42:39;6.93;;;4.65;;
74939;SDS011;63505;45.226;37.908;2023-08-08T08:45:05;11.38;;;4.55;;
74939;SDS011;63505;45.226;37.908;2023-08-08T08:47:34;10.60;;;4.68;;
74939;SDS011;63505;45.226;37.908;2023-08-08T08:50:02;8.90;;;4.28;;
74939;SDS011;63505;45.226;37.908;2023-08-08T08:52:29;8.18;;;4.82;;
74939;SDS011;63505;45.226;37.908;2023-08-08T08:54:56;9.27;;;4.47;;
74939;SDS011;63505;45.226;37.908;2023-08-08T08:57:22;6.72;;;4.13;;
74939;SDS011;63505;45.226;37.908;2023-08-08T08:59:49;12.10;;;6.07;;
74939;SDS011;63505;45.226;37.908;2023-08-08T09:02:16;8.02;;;4.15;;
74939;SDS011;63505;45.226;37.908;2023-08-08T09:04:46;11.25;;;4.50;;
74939;SDS011;63505;45.226;37.908;2023-08-08T09:07:13;6.20;;;4.78;;
74939;SDS011;63505;45.226;37.908;2023-08-08T09:09:42;11.48;;;4.60;;
74939;SDS011;63505;45.226;37.908;2023-08-08T09:12:09;9.90;;;4.53;;
74939;SDS011;63505;45.226;37.908;2023-08-08T09:14:38;10.30;;;4.75;;
74939;SDS011;63505;45.226;37.908;2023-08-08T09:17:10;9.10;;;4.30;;
74939;SDS011;63505;45.226;37.908;2023-08-08T09:19:38;10.52;;;4.72;;
74939;SDS011;63505;45.226;37.908;2023-08-08T09:22:04;8.10;;;4.28;;
74939;SDS011;63505;45.226;37.908;2023-08-08T09:24:30;6.47;;;4.47;;
74939;SDS011;63505;45.226;37.908;2023-08-08T09:26:56;5.60;;;2.90;;
74939;SDS011;63505;45.226;37.908;2023-08-08T09:29:22;6.95;;;4.38;;
74939;SDS011;63505;45.226;37.908;2023-08-08T09:31:48;8.93;;;4.65;;
74939;SDS011;63505;45.226;37.908;2023-08-08T09:34:15;12.05;;;6.07;;
74939;SDS011;63505;45.226;37.908;2023-08-08T09:36:40;10.32;;;5.20;;
74939;SDS011;63505;45.226;37.908;2023-08-08T09:39:06;8.88;;;4.18;;
74939;SDS011;63505;45.226;37.908;2023-08-08T09:41:32;9.35;;;4.70;;
74939;SDS011;63505;45.226;37.908;2023-08-08T09:43:59;5.88;;;4.22;;
74939;SDS011;63505;45.226;37.908;2023-08-08T09:46:25;6.78;;;4.15;;
74939;SDS011;63505;45.226;37.908;2023-08-08T09:48:51;16.20;;;4.70;;
74939;SDS011;63505;45.226;37.908;2023-08-08T09:51:18;7.78;;;4.35;;
74939;SDS011;63505;45.226;37.908;2023-08-08T09:53:45;10.23;;;4.47;;
74939;SDS011;63505;45.226;37.908;2023-08-08T09:58:39;12.82;;;4.65;;
74939;SDS011;63505;45.226;37.908;2023-08-08T10:01:06;11.27;;;4.43;;
74939;SDS011;63505;45.226;37.908;2023-08-08T10:03:32;6.63;;;4.65;;
74939;SDS011;63505;45.226;37.908;2023-08-08T10:06:00;9.93;;;4.70;;
74939;SDS011;63505;45.226;37.908;2023-08-08T10:08:27;8.05;;;4.80;;
74939;SDS011;63505;45.226;37.908;2023-08-08T10:10:55;9.95;;;3.95;;
74939;SDS011;63505;45.226;37.908;2023-08-08T10:13:22;7.47;;;4.13;;
74939;SDS011;63505;45.226;37.908;2023-08-08T10:15:49;7.00;;;3.80;;
74939;SDS011;63505;45.226;37.908;2023-08-08T10:18:17;9.10;;;4.18;;
74939;SDS011;63505;45.226;37.908;2023-08-08T10:20:43;10.40;;;4.03;;
74939;SDS011;63505;45.226;37.908;2023-08-08T10:23:14;6.35;;;4.13;;
74939;SDS011;63505;45.226;37.908;2023-08-08T10:25:44;10.93;;;3.95;;
74939;SDS011;63505;45.226;37.908;2023-08-08T10:28:13;9.35;;;4.65;;
74939;SDS011;63505;45.226;37.908;2023-08-08T10:30:44;11.27;;;4.60;;
74939;SDS011;63505;45.226;37.908;2023-08-08T10:33:27;6.60;;;4.10;;
74939;SDS011;63505;45.226;37.908;2023-08-08T10:36:04;7.00;;;4.10;;
74939;SDS011;63505;45.226;37.908;2023-08-08T10:41:13;7.90;;;3.80;;
74939;SDS011;63505;45.226;37.908;2023-08-08T10:43:50;5.75;;;3.90;;
74939;SDS011;63505;45.226;37.908;2023-08-08T10:46:24;9.38;;;5.70;;
74939;SDS011;63505;45.226;37.908;2023-08-08T10:48:52;9.48;;;3.80;;
74939;SDS011;63505;45.226;37.908;2023-08-08T10:51:19;7.47;;;3.75;;
74939;SDS011;63505;45.226;37.908;2023-08-08T10:53:45;7.50;;;3.90;;
74939;SDS011;63505;45.226;37.908;2023-08-08T10:56:14;10.75;;;4.20;;
74939;SDS011;63505;45.226;37.908;2023-08-08T10:58:40;7.63;;;4.40;;
74939;SDS011;63505;45.226;37.908;2023-08-08T11:01:12;7.47;;;3.97;;
74939;SDS011;63505;45.226;37.908;2023-08-08T11:03:39;8.90;;;4.20;;
74939;SDS011;63505;45.226;37.908;2023-08-08T11:06:07;8.48;;;4.20;;
74939;SDS011;63505;45.226;37.908;2023-08-08T11:08:34;20.55;;;5.15;;
74939;SDS011;63505;45.226;37.908;2023-08-08T11:11:01;7.50;;;4.45;;
74939;SDS011;63505;45.226;37.908;2023-08-08T11:13:28;7.38;;;4.10;;
74939;SDS011;63505;45.226;37.908;2023-08-08T11:15:54;6.72;;;3.60;;
74939;SDS011;63505;45.226;37.908;2023-08-08T11:18:20;13.35;;;4.60;;
74939;SDS011;63505;45.226;37.908;2023-08-08T11:20:47;7.90;;;4.10;;
74939;SDS011;63505;45.226;37.908;2023-08-08T11:23:14;8.60;;;4.38;;
74939;SDS011;63505;45.226;37.908;2023-08-08T11:25:41;10.38;;;4.32;;
74939;SDS011;63505;45.226;37.908;2023-08-08T11:28:08;6.28;;;3.78;;
74939;SDS011;63505;45.226;37.908;2023-08-08T11:30:38;10.63;;;4.30;;
74939;SDS011;63505;45.226;37.908;2023-08-08T11:33:06;6.60;;;4.45;;
74939;SDS011;63505;45.226;37.908;2023-08-08T11:35:32;7.20;;;4.05;;
74939;SDS011;63505;45.226;37.908;2023-08-08T11:37:59;7.55;;;4.35;;
74939;SDS011;63505;45.226;37.908;2023-08-08T11:40:26;5.82;;;3.95;;
74939;SDS011;63505;45.226;37.908;2023-08-08T11:42:53;9.43;;;4.22;;
74939;SDS011;63505;45.226;37.908;2023-08-08T11:45:21;7.82;;;3.55;;
74939;SDS011;63505;45.226;37.908;2023-08-08T11:47:50;5.55;;;4.07;;
74939;SDS011;63505;45.226;37.908;2023-08-08T11:50:18;11.05;;;4.47;;
74939;SDS011;63505;45.226;37.908;2023-08-08T11:52:48;7.38;;;4.10;;
74939;SDS011;63505;45.226;37.908;2023-08-08T11:55:17;7.30;;;3.92;;
74939;SDS011;63505;45.226;37.908;2023-08-08T11:57:47;5.97;;;4.20;;
74939;SDS011;63505;45.226;37.908;2023-08-08T12:00:14;8.27;;;4.60;;
74939;SDS011;63505;45.226;37.908;2023-08-08T12:02:43;9.55;;;4.72;;
74939;SDS011;63505;45.226;37.908;2023-08-08T12:05:10;12.32;;;4.85;;
74939;SDS011;63505;45.226;37.908;2023-08-08T12:07:39;5.88;;;4.20;;
74939;SDS011;63505;45.226;37.908;2023-08-08T12:10:13;8.00;;;4.40;;
74939;SDS011;63505;45.226;37.908;2023-08-08T12:12:41;9.43;;;3.88;;
74939;SDS011;63505;45.226;37.908;2023-08-08T12:15:08;10.90;;;3.72;;
74939;SDS011;63505;45.226;37.908;2023-08-08T12:17:35;7.45;;;4.03;;
74939;SDS011;63505;45.226;37.908;2023-08-08T12:20:05;6.18;;;3.53;;
74939;SDS011;63505;45.226;37.908;2023-08-08T12:22:33;5.43;;;3.95;;
74939;SDS011;63505;45.226;37.908;2023-08-08T12:24:59;8.40;;;3.80;;
74939;SDS011;63505;45.226;37.908;2023-08-08T12:27:25;5.47;;;3.67;;
74939;SDS011;63505;45.226;37.908;2023-08-08T12:29:51;11.05;;;4.38;;
74939;SDS011;63505;45.226;37.908;2023-08-08T12:32:20;10.18;;;4.30;;
74939;SDS011;63505;45.226;37.908;2023-08-08T12:34:50;7.55;;;4.30;;
74939;SDS011;63505;45.226;37.908;2023-08-08T12:37:16;12.38;;;4.82;;
74939;SDS011;63505;45.226;37.908;2023-08-08T12:39:43;14.95;;;4.25;;
74939;SDS011;63505;45.226;37.908;2023-08-08T12:42:09;8.50;;;4.38;;
74939;SDS011;63505;45.226;37.908;2023-08-08T12:44:35;7.35;;;4.05;;
74939;SDS011;63505;45.226;37.908;2023-08-08T12:47:01;10.60;;;3.88;;
74939;SDS011;63505;45.226;37.908;2023-08-08T12:49:27;7.80;;;4.15;;
74939;SDS011;63505;45.226;37.908;2023-08-08T12:51:53;6.10;;;3.97;;
74939;SDS011;63505;45.226;37.908;2023-08-08T12:54:21;8.30;;;4.18;;
74939;SDS011;63505;45.226;37.908;2023-08-08T12:56:47;5.40;;;3.90;;
74939;SDS011;63505;45.226;37.908;2023-08-08T12:59:13;6.93;;;4.20;;
74939;SDS011;63505;45.226;37.908;2023-08-08T13:01:39;5.15;;;3.88;;
74939;SDS011;63505;45.226;37.908;2023-08-08T13:04:05;10.35;;;4.57;;
74939;SDS011;63505;45.226;37.908;2023-08-08T13:06:31;8.75;;;5.35;;
74939;SDS011;63505;45.226;37.908;2023-08-08T13:08:58;7.10;;;4.15;;
74939;SDS011;63505;45.226;37.908;2023-08-08T13:11:24;7.43;;;4.75;;
74939;SDS011;63505;45.226;37.908;2023-08-08T13:13:51;11.18;;;4.32;;
74939;SDS011;63505;45.226;37.908;2023-08-08T13:16:16;7.07;;;4.95;;
74939;SDS011;63505;45.226;37.908;2023-08-08T13:18:42;7.65;;;3.92;;
74939;SDS011;63505;45.226;37.908;2023-08-08T13:21:08;12.73;;;4.30;;
74939;SDS011;63505;45.226;37.908;2023-08-08T13:23:35;11.68;;;4.50;;
74939;SDS011;63505;45.226;37.908;2023-08-08T13:26:02;8.35;;;4.43;;
74939;SDS011;63505;45.226;37.908;2023-08-08T13:28:29;5.97;;;3.97;;
74939;SDS011;63505;45.226;37.908;2023-08-08T13:30:55;7.53;;;4.03;;
74939;SDS011;63505;45.226;37.908;2023-08-08T13:33:21;9.10;;;4.00;;
74939;SDS011;63505;45.226;37.908;2023-08-08T13:35:47;6.38;;;4.47;;
74939;SDS011;63505;45.226;37.908;2023-08-08T13:38:13;11.98;;;4.13;;
74939;SDS011;63505;45.226;37.908;2023-08-08T13:40:43;11.50;;;4.55;;
74939;SDS011;63505;45.226;37.908;2023-08-08T13:43:09;14.30;;;4.43;;
74939;SDS011;63505;45.226;37.908;2023-08-08T13:45:35;6.00;;;4.00;;
74939;SDS011;63505;45.226;37.908;2023-08-08T13:48:01;10.32;;;4.47;;
74939;SDS011;63505;45.226;37.908;2023-08-08T13:50:27;6.70;;;4.50;;
74939;SDS011;63505;45.226;37.908;2023-08-08T13:52:54;11.15;;;4.22;;
74939;SDS011;63505;45.226;37.908;2023-08-08T13:55:20;9.57;;;4.45;;
74939;SDS011;63505;45.226;37.908;2023-08-08T13:57:46;9.90;;;4.70;;
74939;SDS011;63505;45.226;37.908;2023-08-08T14:00:12;7.72;;;4.65;;
74939;SDS011;63505;45.226;37.908;2023-08-08T14:02:39;8.63;;;4.57;;
74939;SDS011;63505;45.226;37.908;2023-08-08T14:05:06;15.65;;;5.05;;
74939;SDS011;63505;45.226;37.908;2023-08-08T14:07:32;8.75;;;4.13;;
74939;SDS011;63505;45.226;37.908;2023-08-08T14:09:59;9.27;;;4.38;;
74939;SDS011;63505;45.226;37.908;2023-08-08T14:12:25;9.35;;;4.50;;
74939;SDS011;63505;45.226;37.908;2023-08-08T14:14:51;7.10;;;4.28;;
74939;SDS011;63505;45.226;37.908;2023-08-08T14:17:16;12.70;;;4.75;;
74939;SDS011;63505;45.226;37.908;2023-08-08T14:19:42;8.82;;;4.60;;
74939;SDS011;63505;45.226;37.908;2023-08-08T14:22:08;5.93;;;3.85;;
74939;SDS011;63505;45.226;37.908;2023-08-08T14:24:36;9.65;;;4.55;;
74939;SDS011;63505;45.226;37.908;2023-08-08T14:27:02;9.73;;;5.32;;
74939;SDS011;63505;45.226;37.908;2023-08-08T14:29:28;5.32;;;3.75;;